Time;durP1;ratioP1;P1;durP2;ratioP2;P2;SDS_P1;SDS_P2;PMS_P1;PMS_P2;Temp;Humidity;BMP_temperature;BMP_pressure;BME280_temperature;BME280_humidity;BME280_pressure;Samples;Min_cycle;Max_cycle;Signal;HPM_P1;HPM_P2
2023/08/16 00:01:48;;;;;;;;;29.33;28.67;;;;;;;;6488786;39;9001;-52
2023/08/16 00:07:52;;;;;;;;;26.67;25.00;;;;;;;;6489459;39;8939;-52
2023/08/16 00:13:54;;;;;;;;;27.67;27.33;;;;;;;;6488654;39;9008;-53
2023/08/16 00:19:56;;;;;;;;;24.00;23.00;;;;;;;;6488774;39;8885;-55
2023/08/16 00:25:58;;;;;;;;;30.67;27.00;;;;;;;;6510154;31;131275;-51
2023/08/16 00:32:03;;;;;;;;;27.67;27.67;;;;;;;;6489442;39;9568;-53
2023/08/16 00:38:05;;;;;;;;;37.67;34.00;;;;;;;;6490048;39;9421;-54
2023/08/16 00:44:09;;;;;;;;;29.67;27.33;;;;;;;;6487714;46;8890;-54
2023/08/16 00:50:12;;;;;;;;;28.33;27.00;;;;;;;;6488816;46;8929;-51
2023/08/16 00:56:17;;;;;;;;;31.67;30.67;;;;;;;;6488925;39;8962;-52
2023/08/16 01:02:21;;;;;;;;;29.00;26.33;;;;;;;;6488814;31;8958;-51
2023/08/16 01:08:23;;;;;;;;;34.00;30.33;;;;;;;;6488794;39;8820;-53
2023/08/16 01:14:51;;;;;;;;;29.00;27.00;;;;;;;;6488604;46;8902;-51
2023/08/16 01:20:55;;;;;;;;;26.67;25.67;;;;;;;;6489128;39;9098;-51
2023/08/16 01:26:58;;;;;;;;;27.00;26.67;;;;;;;;6489389;39;8890;-52
2023/08/16 01:33:11;;;;;;;;;28.33;25.67;;;;;;;;6488171;47;8943;-52
2023/08/16 01:39:14;;;;;;;;;24.00;22.33;;;;;;;;6489832;39;8937;-54
2023/08/16 01:45:18;;;;;;;;;28.00;25.50;;;;;;;;6487984;31;8864;-53
2023/08/16 01:51:20;;;;;;;;;23.00;23.00;;;;;;;;6489613;31;8891;-53
2023/08/16 01:57:22;;;;;;;;;21.67;21.33;;;;;;;;6487804;39;8907;-51
2023/08/16 02:03:27;;;;;;;;;25.33;25.33;;;;;;;;6487362;39;8891;-50
2023/08/16 02:09:30;;;;;;;;;26.67;25.33;;;;;;;;6488129;39;8871;-53
2023/08/16 02:15:32;;;;;;;;;25.00;24.00;;;;;;;;6487550;39;8858;-52
2023/08/16 02:21:35;;;;;;;;;24.00;24.00;;;;;;;;6487623;39;8883;-51
2023/08/16 02:27:39;;;;;;;;;26.50;25.75;;;;;;;;6487718;46;8839;-51
2023/08/16 02:33:42;;;;;;;;;26.00;24.67;;;;;;;;6489597;46;8918;-53
2023/08/16 02:39:45;;;;;;;;;27.67;25.67;;;;;;;;6490048;31;8823;-51
2023/08/16 02:45:48;;;;;;;;;26.00;26.00;;;;;;;;6489717;39;8868;-50
2023/08/16 02:51:50;;;;;;;;;30.33;28.67;;;;;;;;6490187;46;8989;-47
2023/08/16 02:57:53;;;;;;;;;23.67;21.00;;;;;;;;6488769;46;8907;-51
2023/08/16 03:03:57;;;;;;;;;25.00;23.00;;;;;;;;6489640;39;8930;-50
2023/08/16 03:09:59;;;;;;;;;24.67;23.67;;;;;;;;6489114;46;8876;-52
2023/08/16 03:16:01;;;;;;;;;25.33;21.67;;;;;;;;6488609;31;8944;-51
2023/08/16 03:22:04;;;;;;;;;21.67;19.33;;;;;;;;6489907;39;8883;-51
2023/08/16 03:28:07;;;;;;;;;18.00;18.00;;;;;;;;6489324;39;8838;-51
2023/08/16 03:34:10;;;;;;;;;20.67;20.67;;;;;;;;6488412;46;8903;-51
2023/08/16 03:40:14;;;;;;;;;22.67;21.67;;;;;;;;6490036;39;9074;-52
2023/08/16 03:46:17;;;;;;;;;18.33;18.33;;;;;;;;6488210;39;8868;-49
2023/08/16 03:52:19;;;;;;;;;19.33;18.33;;;;;;;;6489118;39;8973;-50
2023/08/16 03:58:22;;;;;;;;;21.00;21.00;;;;;;;;6488544;46;8866;-51
2023/08/16 04:04:24;;;;;;;;;21.00;21.00;;;;;;;;6468926;39;9021;-54
2023/08/16 04:10:27;;;;;;;;;19.00;19.00;;;;;;;;6488982;31;9071;-53
2023/08/16 04:16:30;;;;;;;;;19.00;17.75;;;;;;;;6490193;39;8941;-57
